Flight Briefing for CMB805

Departure Arrival
Norfolk Naval Station (Chambers Field) (KNGU)
Click to view FAA NOTAMS
Joint Base McGuire Dix Lakehurst (KWRI)
Click to view FAA NOTAMS
Departure Time Arrival Time
N/A N/A
Aircraft Distance
B757-200SF 701nm
Departure METAR Arrival METAR
KNGU 181459Z 07011KT 10SM FEW080 BKN095 10/02 A3023 RMK AO2 SLP237 T01000017 52005 KWRI 181456Z AUTO 06005KT 10SM OVC075 05/M11 A3029 RMK AO2 SLP258 T00471114 51011 $
Suggested Route





View recent IFR Routes data
Notes
USTRANSCOM CONTRACT FLIGHT

Charts and Procedures

Charts for KNGU
No chart available
Charts for KWRI
No chart available

Windy.com Weather Map